createdAt,value
2022-08-29T00:03:02.522Z,15.26
2022-08-29T00:08:13.043Z,15.28
2022-08-29T00:13:16.521Z,15.17
2022-08-29T00:18:20.736Z,15.35
2022-08-29T00:23:23.196Z,15.57
2022-08-29T00:28:25.598Z,15.33
2022-08-29T00:33:28.239Z,15.37
2022-08-29T00:38:30.659Z,15.39
2022-08-29T00:43:36.460Z,15.49
2022-08-29T00:48:40.849Z,15.34
2022-08-29T00:53:46.578Z,15.31
2022-08-29T00:58:56.318Z,15.16
2022-08-29T01:03:59.080Z,14.58
2022-08-29T01:09:03.309Z,14.83
2022-08-29T01:14:05.766Z,14.65
2022-08-29T01:19:36.816Z,14.77
2022-08-29T01:24:50.917Z,14.83
2022-08-29T01:29:53.461Z,14.89
2022-08-29T01:34:55.918Z,15.18
2022-08-29T01:39:58.529Z,14.83
2022-08-29T01:45:02.775Z,14.70
2022-08-29T01:50:12.942Z,14.60
2022-08-29T01:55:15.273Z,14.36
2022-08-29T02:00:18.393Z,14.41
2022-08-29T02:05:23.667Z,14.60
2022-08-29T02:10:28.464Z,14.48
2022-08-29T02:15:30.973Z,14.55
2022-08-29T02:20:33.188Z,14.52
2022-08-29T02:25:44.661Z,14.71
2022-08-29T02:30:52.146Z,14.81
2022-08-29T02:36:00.191Z,14.79
2022-08-29T02:41:04.009Z,14.67
2022-08-29T02:46:06.871Z,14.41
2022-08-29T02:51:09.037Z,14.45
2022-08-29T02:56:14.306Z,14.61
2022-08-29T03:01:18.973Z,14.47
2022-08-29T03:06:22.090Z,14.50
2022-08-29T03:11:24.502Z,14.16
2022-08-29T03:16:27.308Z,13.97
2022-08-29T03:21:29.566Z,14.22
2022-08-29T03:26:36.953Z,14.59
2022-08-29T03:31:39.487Z,14.61
2022-08-29T03:36:42.097Z,14.59
2022-08-29T03:41:44.305Z,14.85
2022-08-29T03:46:47.625Z,14.88
2022-08-29T03:51:50.294Z,14.87
2022-08-29T03:56:52.577Z,14.80
2022-08-29T04:01:54.899Z,14.67
2022-08-29T04:06:57.293Z,14.90
2022-08-29T04:12:00.115Z,15.22
2022-08-29T04:17:04.519Z,15.36
2022-08-29T04:22:07.201Z,15.35
2022-08-29T04:27:09.400Z,15.11
2022-08-29T04:32:11.711Z,15.61
2022-08-29T04:37:14.068Z,15.68
2022-08-29T04:42:20.221Z,16.06
2022-08-29T04:47:22.767Z,16.25
2022-08-29T04:52:27.723Z,15.93
2022-08-29T04:57:29.938Z,16.29
2022-08-29T05:02:32.619Z,16.50
2022-08-29T05:07:35.524Z,16.69
2022-08-29T05:12:41.461Z,16.74
2022-08-29T05:17:44.597Z,16.84
2022-08-29T05:22:47.349Z,17.36
2022-08-29T05:27:50.094Z,17.67
2022-08-29T05:32:52.580Z,18.00
2022-08-29T05:37:54.916Z,19.05
2022-08-29T05:42:57.231Z,22.38
2022-08-29T05:48:04.238Z,26.49
2022-08-29T05:53:06.731Z,29.02
2022-08-29T05:58:09.517Z,30.85
2022-08-29T06:03:12.609Z,32.31
2022-08-29T06:08:14.924Z,32.56
2022-08-29T06:13:17.173Z,33.50
2022-08-29T06:18:19.641Z,33.29
2022-08-29T06:23:29.360Z,34.07
2022-08-29T06:28:34.868Z,36.01
2022-08-29T06:33:37.530Z,33.42
2022-08-29T06:38:40.282Z,31.37
2022-08-29T06:43:43.693Z,29.90
2022-08-29T06:48:45.845Z,29.95
2022-08-29T06:53:50.849Z,31.15
2022-08-29T06:58:53.164Z,31.25
2022-08-29T07:03:57.098Z,30.88
2022-08-29T07:08:59.648Z,29.35
2022-08-29T07:14:04.805Z,28.99
2022-08-29T07:19:08.897Z,29.21
2022-08-29T07:24:11.387Z,29.68
2022-08-29T07:29:18.744Z,31.43
2022-08-29T07:34:21.058Z,32.75
2022-08-29T07:39:24.297Z,33.56
2022-08-29T07:44:27.067Z,34.22
2022-08-29T07:49:41.524Z,34.09
2022-08-29T07:54:44.402Z,34.48
2022-08-29T07:59:46.778Z,33.90
2022-08-29T08:04:52.414Z,34.30
2022-08-29T08:09:54.987Z,35.33
2022-08-29T08:14:57.684Z,35.74
2022-08-29T08:19:59.825Z,36.19
2022-08-29T08:25:06.335Z,36.42
2022-08-29T08:30:09.338Z,36.10
2022-08-29T08:35:15.556Z,36.27
2022-08-29T08:40:48.450Z,36.85
2022-08-29T08:45:51.003Z,36.94
2022-08-29T08:51:23.195Z,37.02
2022-08-29T08:56:31.701Z,37.08
2022-08-29T09:01:40.248Z,37.89
2022-08-29T09:07:00.356Z,38.94
2022-08-29T09:12:20.071Z,39.29
2022-08-29T09:17:36.360Z,39.67
2022-08-29T09:22:41.325Z,39.07
2022-08-29T09:27:46.807Z,39.42
2022-08-29T09:33:08.015Z,38.76
2022-08-29T09:38:24.263Z,39.05
2022-08-29T09:43:34.038Z,38.52
2022-08-29T09:48:38.528Z,38.79
2022-08-29T09:53:41.791Z,38.52
2022-08-29T09:58:44.170Z,38.74
2022-08-29T10:04:07.552Z,38.18
2022-08-29T10:09:27.817Z,38.03
2022-08-29T10:14:36.255Z,38.21
2022-08-29T10:19:38.679Z,37.31
2022-08-29T10:24:40.798Z,38.05
2022-08-29T10:29:52.415Z,37.98
2022-08-29T10:35:32.980Z,37.78
2022-08-29T10:40:49.769Z,38.05
2022-08-29T10:46:18.065Z,37.15
2022-08-29T10:51:42.278Z,37.65
2022-08-29T10:56:46.756Z,37.11
2022-08-29T11:02:15.680Z,37.12
2022-08-29T11:07:20.963Z,36.99
2022-08-29T11:12:33.548Z,36.87
2022-08-29T11:17:41.099Z,37.67
2022-08-29T11:23:06.390Z,36.87
2022-08-29T11:28:29.257Z,36.50
2022-08-29T11:33:45.965Z,34.51
2022-08-29T11:39:23.315Z,36.80
2022-08-29T11:44:28.587Z,36.85
2022-08-29T11:49:31.448Z,35.13
2022-08-29T11:54:37.242Z,34.60
2022-08-29T11:59:57.257Z,33.69
2022-08-29T12:05:26.775Z,33.18
2022-08-29T12:10:50.523Z,32.49
2022-08-29T12:15:54.498Z,32.21
2022-08-29T12:20:57.014Z,31.21
2022-08-29T12:26:22.905Z,30.53
2022-08-29T12:31:31.234Z,30.08
2022-08-29T12:37:13.796Z,29.16
2022-08-29T12:42:44.151Z,28.86
2022-08-29T12:47:55.459Z,28.32
2022-08-29T12:53:07.626Z,27.68
2022-08-29T12:58:13.132Z,27.63
2022-08-29T13:03:21.295Z,27.47
2022-08-29T13:08:28.539Z,27.33
2022-08-29T13:13:31.113Z,27.49
2022-08-29T13:18:44.548Z,27.69
2022-08-29T13:24:19.693Z,28.11
2022-08-29T13:34:39.173Z,27.59
2022-08-29T13:39:44.976Z,27.53
2022-08-29T13:44:47.426Z,27.83
2022-08-29T13:49:50.167Z,27.91
2022-08-29T13:54:52.394Z,28.06
2022-08-29T13:59:55.526Z,28.21
2022-08-29T14:11:33.176Z,28.27
2022-08-29T14:16:35.982Z,28.74
2022-08-29T14:21:38.326Z,29.14
2022-08-29T14:26:40.557Z,29.35
2022-08-29T14:31:42.998Z,28.78
2022-08-29T14:36:48.272Z,28.91
2022-08-29T14:41:50.998Z,29.01
2022-08-29T14:46:59.063Z,29.15
2022-08-29T14:52:01.265Z,29.01
2022-08-29T14:57:03.706Z,28.92
2022-08-29T15:02:06.199Z,28.85
2022-08-29T15:07:12.650Z,28.86
2022-08-29T15:12:18.021Z,29.13
2022-08-29T15:17:23.795Z,29.20
2022-08-29T15:22:26.481Z,28.48
2022-08-29T15:27:28.617Z,28.22
2022-08-29T15:32:30.870Z,27.99
2022-08-29T15:37:34.331Z,27.81
2022-08-29T15:42:38.780Z,27.91
2022-08-29T15:47:46.126Z,27.80
2022-08-29T15:52:48.751Z,27.34
2022-08-29T15:57:52.810Z,26.76
2022-08-29T16:02:55.531Z,26.20
2022-08-29T16:07:57.856Z,26.08
2022-08-29T16:13:00.749Z,26.13
2022-08-29T16:18:03.962Z,25.68
2022-08-29T16:23:06.273Z,25.27
2022-08-29T16:28:08.996Z,25.33
2022-08-29T16:33:11.305Z,24.88
2022-08-29T16:38:13.624Z,24.75
2022-08-29T16:43:17.102Z,24.50
2022-08-29T16:48:19.571Z,24.42
2022-08-29T16:53:22.143Z,24.20
2022-08-29T16:58:42.565Z,23.93
2022-08-29T17:03:44.811Z,23.55
2022-08-29T17:08:47.124Z,23.26
2022-08-29T17:13:49.777Z,23.18
2022-08-29T17:18:52.254Z,22.86
2022-08-29T17:23:55.567Z,22.89
2022-08-29T17:28:57.957Z,22.42
2022-08-29T17:34:00.416Z,22.24
2022-08-29T17:39:03.913Z,21.84
2022-08-29T17:44:08.291Z,21.57
2022-08-29T17:49:11.746Z,21.55
2022-08-29T17:54:14.779Z,21.30
2022-08-29T17:59:18.234Z,21.22
2022-08-29T18:04:20.760Z,21.00
2022-08-29T18:09:24.340Z,21.07
2022-08-29T18:14:27.606Z,20.98
2022-08-29T18:19:29.944Z,21.07
2022-08-29T18:24:32.261Z,21.11
2022-08-29T18:29:34.663Z,21.00
2022-08-29T18:34:36.954Z,20.84
2022-08-29T18:39:40.077Z,20.58
2022-08-29T18:44:42.169Z,20.63
2022-08-29T18:50:03.105Z,20.71
2022-08-29T18:55:06.100Z,20.84
2022-08-29T19:00:10.724Z,20.78
2022-08-29T19:05:17.106Z,20.11
2022-08-29T19:10:20.188Z,20.13
2022-08-29T19:15:26.034Z,20.01
2022-08-29T19:20:47.683Z,19.96
2022-08-29T19:25:50.654Z,20.23
2022-08-29T19:30:53.281Z,20.43
2022-08-29T19:35:56.086Z,20.41
2022-08-29T19:41:01.786Z,20.41
2022-08-29T19:46:16.588Z,20.26
2022-08-29T19:51:22.060Z,20.40
2022-08-29T19:56:29.350Z,20.51
2022-08-29T20:01:31.828Z,20.46
2022-08-29T20:06:35.086Z,20.16
2022-08-29T20:11:43.870Z,20.39
2022-08-29T20:16:46.488Z,20.17
2022-08-29T20:21:50.266Z,19.94
2022-08-29T20:26:52.494Z,19.88
2022-08-29T20:31:57.731Z,20.12
2022-08-29T20:37:10.624Z,20.26
2022-08-29T20:42:15.704Z,20.42
2022-08-29T20:47:20.147Z,20.29
2022-08-29T20:52:24.449Z,20.38
2022-08-29T20:57:26.873Z,20.52
2022-08-29T21:02:47.921Z,20.45
2022-08-29T21:07:50.105Z,20.45
2022-08-29T21:12:53.055Z,20.36
2022-08-29T21:17:55.316Z,20.22
2022-08-29T21:23:04.165Z,20.33
2022-08-29T21:28:07.696Z,20.12
2022-08-29T21:33:10.469Z,20.03
2022-08-29T21:38:12.699Z,19.99
2022-08-29T21:43:14.977Z,20.00
2022-08-29T21:48:17.561Z,19.65
2022-08-29T21:53:19.641Z,19.77
2022-08-29T21:58:21.813Z,19.72
2022-08-29T22:03:25.734Z,19.74
2022-08-29T22:08:28.021Z,19.57
2022-08-29T22:13:30.464Z,19.43
2022-08-29T22:18:32.851Z,19.34
2022-08-29T22:23:35.025Z,19.34
2022-08-29T22:28:37.333Z,19.33
2022-08-29T22:33:40.303Z,19.19
2022-08-29T22:38:44.110Z,19.13
2022-08-29T22:43:46.417Z,19.04
2022-08-29T22:48:50.034Z,18.85
2022-08-29T22:54:11.866Z,18.88
2022-08-29T22:59:14.949Z,18.88
2022-08-29T23:04:17.347Z,19.02
2022-08-29T23:09:19.845Z,19.05
2022-08-29T23:14:22.578Z,18.99
2022-08-29T23:19:24.732Z,19.02
2022-08-29T23:24:26.993Z,19.20
2022-08-29T23:29:32.787Z,19.26
2022-08-29T23:34:35.526Z,19.01
2022-08-29T23:39:37.955Z,19.02
2022-08-29T23:44:40.331Z,18.78
2022-08-29T23:49:42.550Z,18.84
2022-08-29T23:54:44.645Z,18.75
